Time;durP1;ratioP1;P1;durP2;ratioP2;P2;SDS_P1;SDS_P2;PMS_P1;PMS_P2;Temp;Humidity;BMP_temperature;BMP_pressure;BME280_temperature;BME280_humidity;BME280_pressure;Samples;Min_cycle;Max_cycle;Signal;HPM_P1;HPM_P2
2024/04/19 00:01:16;;;;;;;0.60;0.60;;;;;;;4.57;73.39;99394.19;5488808;26;19994;-66
2024/04/19 00:03:44;;;;;;;1.15;1.05;;;;;;;4.50;73.39;99403.31;5490444;26;20026;-66
2024/04/19 00:06:17;;;;;;;0.50;0.50;;;;;;;4.25;73.42;99382.63;5489969;26;19998;-66
2024/04/19 00:08:46;;;;;;;0.55;0.55;;;;;;;4.30;73.63;99403.75;5488958;26;20002;-66
2024/04/19 00:11:16;;;;;;;0.38;0.38;;;;;;;4.31;74.01;99405.47;5488432;26;20006;-66
2024/04/19 00:13:44;;;;;;;0.30;0.30;;;;;;;4.35;74.15;99402.16;5488233;26;20002;-66
2024/04/19 00:16:15;;;;;;;0.68;0.68;;;;;;;4.35;74.15;99402.16;5490006;26;20006;-66
2024/04/19 00:18:43;;;;;;;0.57;0.57;;;;;;;4.44;74.53;99402.38;5490060;26;20002;-66
2024/04/19 00:21:13;;;;;;;1.77;0.65;;;;;;;4.52;74.36;99405.88;5490025;26;19994;-66
2024/04/19 00:23:44;;;;;;;2.50;0.80;;;;;;;4.53;74.33;99397.47;5490232;26;19999;-67
2024/04/19 00:26:15;;;;;;;1.25;1.15;;;;;;;4.62;74.14;99400.16;5489902;26;20456;-66
2024/04/19 00:28:43;;;;;;;0.35;0.35;;;;;;;4.60;73.94;99409.41;5489953;26;19998;-66
2024/04/19 00:31:13;;;;;;;0.75;0.75;;;;;;;4.51;73.70;99406.72;5489827;26;20066;-66
2024/04/19 00:33:44;;;;;;;0.35;0.35;;;;;;;4.33;73.69;99391.19;5489508;26;20010;-66
2024/04/19 00:36:12;;;;;;;0.32;0.32;;;;;;;4.39;73.79;99414.06;5488168;26;20010;-66
2024/04/19 00:38:42;;;;;;;2.38;1.85;;;;;;;4.34;73.67;99410.59;5489700;26;19998;-66
2024/04/19 00:41:13;;;;;;;2.83;1.17;;;;;;;4.33;73.89;99403.81;5489652;26;20003;-66
2024/04/19 00:43:46;;;;;;;1.02;0.95;;;;;;;4.31;73.89;99420.63;5487793;26;20336;-66
2024/04/19 00:46:15;;;;;;;1.48;1.38;;;;;;;4.20;73.88;99417.03;5489686;26;20125;-66
2024/04/19 00:48:46;;;;;;;0.30;0.30;;;;;;;4.13;73.96;99418.56;5488412;26;19990;-66
2024/04/19 00:51:15;;;;;;;0.35;0.35;;;;;;;4.15;74.17;99416.91;5491514;26;20005;-66
2024/04/19 00:53:46;;;;;;;0.40;0.40;;;;;;;4.09;74.24;99424.38;5493059;26;20009;-66
2024/04/19 00:56:28;;;;;;;0.30;0.30;;;;;;;4.20;74.30;99425.44;5493326;26;20429;-66
2024/04/19 00:58:58;;;;;;;0.60;0.60;;;;;;;4.22;74.25;99423.81;5491308;26;20336;-67
2024/04/19 01:01:27;;;;;;;0.40;0.40;;;;;;;4.17;73.97;99427.94;5493472;26;20009;-66
2024/04/19 01:03:58;;;;;;;0.30;0.30;;;;;;;4.08;74.28;99422.66;5493351;26;20013;-66
2024/04/19 01:06:26;;;;;;;0.30;0.30;;;;;;;4.05;74.32;99428.50;5491335;26;20013;-67
2024/04/19 01:08:57;;;;;;;0.20;0.20;;;;;;;4.07;74.42;99421.84;5493075;26;20009;-66
2024/04/19 01:11:34;;;;;;;0.60;0.60;;;;;;;3.97;74.41;99430.03;5493236;26;20006;-66
2024/04/19 01:14:04;;;;;;;0.40;0.40;;;;;;;3.98;74.39;99419.09;5492609;26;20066;-65
2024/04/19 01:16:32;;;;;;;0.25;0.25;;;;;;;4.11;74.27;99424.41;5492894;26;20002;-66
2024/04/19 01:19:03;;;;;;;0.47;0.47;;;;;;;4.19;74.23;99425.44;5491159;26;20008;-66
2024/04/19 01:21:31;;;;;;;0.30;0.30;;;;;;;4.14;73.86;99409.31;5491003;26;20325;-66
2024/04/19 01:24:08;;;;;;;0.40;0.40;;;;;;;4.07;73.80;99406.69;5492748;26;20012;-66
2024/04/19 01:26:39;;;;;;;0.68;0.68;;;;;;;4.02;74.10;99420.88;5492877;26;20472;-66
2024/04/19 01:29:10;;;;;;;0.55;0.55;;;;;;;3.91;73.65;99424.84;5492891;26;20445;-66
2024/04/19 01:31:39;;;;;;;0.73;0.70;;;;;;;4.04;74.18;99431.88;5492641;26;20456;-66
2024/04/19 01:34:09;;;;;;;0.30;0.30;;;;;;;3.87;74.16;99419.69;5490784;26;20367;-66
2024/04/19 01:36:37;;;;;;;0.50;0.50;;;;;;;3.95;74.29;99430.81;5492634;26;20010;-66
2024/04/19 01:39:08;;;;;;;0.40;0.40;;;;;;;3.94;74.25;99434.16;5492592;26;19998;-66
2024/04/19 01:41:38;;;;;;;0.25;0.25;;;;;;;3.87;74.26;99440.75;5490860;26;20333;-66
2024/04/19 01:44:09;;;;;;;0.80;0.80;;;;;;;3.81;74.39;99445.69;5492709;26;20074;-66
2024/04/19 01:46:37;;;;;;;1.35;1.00;;;;;;;3.80;74.54;99441.44;5490780;26;20014;-66
2024/04/19 01:49:07;;;;;;;0.85;0.75;;;;;;;3.82;74.56;99444.84;5492329;26;20456;-66
2024/04/19 01:51:35;;;;;;;0.60;0.60;;;;;;;3.81;nan;99440.63;5492635;26;19998;-66
2024/04/19 01:54:06;;;;;;;0.28;0.28;;;;;;;3.81;74.60;99440.63;5490335;26;20456;-66
2024/04/19 01:56:36;;;;;;;0.85;0.52;;;;;;;3.78;74.42;99435.50;5492576;26;20009;-66
2024/04/19 01:59:07;;;;;;;0.22;0.22;;;;;;;3.68;74.51;99440.31;5491783;26;20009;-66
2024/04/19 02:01:37;;;;;;;0.20;0.20;;;;;;;3.62;74.53;99430.94;5492222;26;19998;-66
2024/04/19 02:04:06;;;;;;;0.75;0.75;;;;;;;3.67;74.70;99444.50;5490847;26;20013;-66
2024/04/19 02:06:36;;;;;;;1.88;1.77;;;;;;;3.65;74.64;99441.09;5491850;26;19998;-66
2024/04/19 02:09:04;;;;;;;0.30;0.30;;;;;;;3.55;74.58;99444.22;5492916;26;19998;-66
2024/04/19 02:11:34;;;;;;;0.30;0.30;;;;;;;3.53;74.74;99440.81;5490172;26;20002;-66
2024/04/19 02:14:02;;;;;;;0.20;0.20;;;;;;;3.45;74.88;99441.44;5492061;26;20002;-66
2024/04/19 02:16:36;;;;;;;0.20;0.20;;;;;;;3.42;75.06;99437.19;5491801;26;20010;-66
2024/04/19 02:19:03;;;;;;;0.80;0.80;;;;;;;3.38;75.04;99455.59;5490171;26;20310;-67
2024/04/19 02:21:34;;;;;;;2.35;1.65;;;;;;;3.36;75.09;99447.13;5491986;26;20009;-66
2024/04/19 02:24:04;;;;;;;0.77;0.77;;;;;;;3.26;75.23;99437.66;5492031;26;19998;-66
2024/04/19 02:26:35;;;;;;;0.40;0.40;;;;;;;3.25;75.51;99451.06;5492183;26;20026;-66
2024/04/19 02:31:46;;;;;;;0.65;0.65;;;;;;;3.21;75.65;99445.09;5492141;26;19994;-66
2024/04/19 02:34:17;;;;;;;0.40;0.40;;;;;;;3.24;75.65;99436.72;5491682;26;19998;-66
2024/04/19 02:36:48;;;;;;;0.30;0.30;;;;;;;3.19;75.65;99445.88;5490437;26;20034;-66
2024/04/19 02:39:19;;;;;;;1.80;1.38;;;;;;;3.16;75.97;99433.19;5490180;26;20010;-66
2024/04/19 02:41:51;;;;;;;0.20;0.20;;;;;;;3.20;75.91;99429.94;5492060;26;20083;-66
2024/04/19 02:44:42;;;;;;;0.73;0.73;;;;;;;3.23;75.84;99435.03;5491752;26;20339;-66
2024/04/19 02:47:16;;;;;;;0.77;0.77;;;;;;;3.11;75.96;99424.66;5491678;26;20010;-66
2024/04/19 02:49:46;;;;;;;0.93;0.93;;;;;;;3.10;75.99;99440.59;5491458;26;20025;-66
2024/04/19 02:52:17;;;;;;;1.42;1.33;;;;;;;3.07;76.19;99438.03;5491407;26;19998;-66
2024/04/19 02:54:48;;;;;;;0.90;0.90;;;;;;;3.03;76.12;99436.22;5491187;26;20459;-67
2024/04/19 02:57:18;;;;;;;9.77;3.50;;;;;;;2.94;76.50;99430.94;5489993;26;20071;-66
2024/04/19 02:59:49;;;;;;;2.28;1.67;;;;;;;2.99;76.55;99434.44;5491925;26;20039;-66
2024/04/19 03:02:22;;;;;;;0.82;0.77;;;;;;;3.00;76.79;99429.44;5491421;26;20085;-66
2024/04/19 03:04:53;;;;;;;1.33;1.15;;;;;;;2.75;76.77;99396.88;5491387;26;19994;-66
2024/04/19 03:07:23;;;;;;;0.98;0.95;;;;;;;2.93;76.91;99439.34;5491254;26;20013;-66
2024/04/19 03:09:54;;;;;;;0.55;0.55;;;;;;;2.90;77.16;99437.59;5489639;26;20002;-66
2024/04/19 03:12:25;;;;;;;0.77;0.77;;;;;;;2.90;77.04;99444.28;5490046;26;20397;-65
2024/04/19 03:14:55;;;;;;;0.28;0.28;;;;;;;2.82;77.04;99443.22;5491096;26;20014;-65
2024/04/19 03:17:29;;;;;;;0.77;0.77;;;;;;;2.75;77.15;99447.28;5491463;26;20013;-65
2024/04/19 03:20:00;;;;;;;0.60;0.52;;;;;;;2.82;77.41;99440.72;5491063;26;20054;-64
2024/04/19 03:22:30;;;;;;;0.90;0.90;;;;;;;2.87;77.35;99440.03;5491200;26;20433;-65
2024/04/19 03:25:01;;;;;;;0.30;0.30;;;;;;;2.80;77.60;99444.88;5490817;26;20322;-65
2024/04/19 03:27:32;;;;;;;0.20;0.20;;;;;;;2.88;77.99;99443.41;5491204;26;20389;-65
2024/04/19 03:30:03;;;;;;;0.25;0.25;;;;;;;2.82;77.96;99441.56;5490810;26;20006;-65
2024/04/19 03:32:37;;;;;;;0.20;0.20;;;;;;;2.85;77.79;99443.31;5490911;26;19998;-65
2024/04/19 03:35:07;;;;;;;0.30;0.30;;;;;;;2.75;77.71;99433.81;5490820;26;20328;-66
2024/04/19 03:37:38;;;;;;;0.40;0.40;;;;;;;2.76;77.80;99433.00;5489314;26;20389;-65
2024/04/19 03:40:10;;;;;;;0.32;0.32;;;;;;;2.59;77.51;99438.44;5490938;26;19998;-66
2024/04/19 03:42:45;;;;;;;0.73;0.73;;;;;;;2.58;77.81;99440.94;5491140;26;20013;-66
2024/04/19 03:47:58;;;;;;;0.73;0.73;;;;;;;2.54;78.14;99442.50;5488950;26;20344;-65
2024/04/19 03:50:28;;;;;;;0.30;0.30;;;;;;;2.53;77.96;99443.31;5490859;26;19998;-65
2024/04/19 03:52:59;;;;;;;0.30;0.30;;;;;;;2.59;78.36;99448.50;5490732;26;20038;-66
2024/04/19 03:55:30;;;;;;;0.30;0.30;;;;;;;2.61;78.27;99434.31;5490514;26;19998;-65
2024/04/19 03:58:01;;;;;;;0.77;0.77;;;;;;;2.58;78.12;99449.34;5491159;26;20002;-65
2024/04/19 04:00:31;;;;;;;1.92;1.33;;;;;;;2.59;78.47;99443.47;5490423;26;20006;-65
2024/04/19 04:03:05;;;;;;;0.75;0.75;;;;;;;2.61;78.38;99444.41;5488821;26;20013;-66
2024/04/19 04:05:36;;;;;;;0.52;0.52;;;;;;;2.67;78.41;99437.00;5490588;26;20002;-65
2024/04/19 04:08:07;;;;;;;0.30;0.30;;;;;;;2.71;78.47;99443.81;5490267;26;20062;-66
2024/04/19 04:10:38;;;;;;;0.60;0.60;;;;;;;2.68;78.35;99433.66;5488823;26;20013;-65
2024/04/19 04:13:09;;;;;;;1.48;1.38;;;;;;;2.72;78.48;99447.19;5490223;26;20002;-65
2024/04/19 04:15:39;;;;;;;0.50;0.50;;;;;;;2.79;78.73;99445.66;5490478;26;20002;-65
2024/04/19 04:18:12;;;;;;;1.40;1.30;;;;;;;2.81;78.78;99451.63;5488531;26;20038;-65
2024/04/19 04:20:43;;;;;;;2.05;1.95;;;;;;;2.82;78.60;99450.78;5490399;26;20002;-65
2024/04/19 04:23:14;;;;;;;1.00;0.80;;;;;;;2.86;78.70;99452.56;5490363;26;20000;-65
2024/04/19 04:25:45;;;;;;;0.40;0.40;;;;;;;2.92;79.04;99451.09;5493575;26;20010;-65
2024/04/19 04:28:16;;;;;;;0.20;0.20;;;;;;;2.99;78.74;99454.59;5493850;26;20005;-65
2024/04/19 04:30:46;;;;;;;0.47;0.47;;;;;;;2.93;78.78;99445.22;5494262;26;20448;-65
2024/04/19 04:33:20;;;;;;;0.28;0.28;;;;;;;3.07;78.77;99448.94;5493562;26;20006;-66
2024/04/19 04:35:50;;;;;;;0.68;0.68;;;;;;;2.96;78.77;99429.31;5491724;26;20026;-65
2024/04/19 04:38:21;;;;;;;0.30;0.30;;;;;;;3.08;78.55;99447.28;5493548;26;20002;-65
2024/04/19 04:40:52;;;;;;;5.05;3.13;;;;;;;3.06;78.45;99448.91;5493697;26;20002;-65
2024/04/19 04:43:23;;;;;;;2.92;1.08;;;;;;;3.00;78.71;99441.19;5493670;26;20002;-65
2024/04/19 04:45:54;;;;;;;1.88;1.77;;;;;;;3.10;78.54;99453.19;5493571;26;20010;-65
2024/04/19 04:48:27;;;;;;;3.90;1.02;;;;;;;3.14;78.44;99440.69;5491761;26;20350;-65
2024/04/19 04:50:59;;;;;;;0.45;0.45;;;;;;;3.29;78.19;99457.88;5493035;26;20002;-65
2024/04/19 04:53:30;;;;;;;1.25;1.02;;;;;;;3.32;78.22;99457.97;5492915;26;20006;-65
2024/04/19 04:56:01;;;;;;;1.45;1.35;;;;;;;3.33;78.17;99454.63;5493114;26;20009;-66
2024/04/19 04:58:32;;;;;;;0.65;0.65;;;;;;;3.38;78.07;99453.06;5493164;26;20010;-65
2024/04/19 05:01:02;;;;;;;0.40;0.40;;;;;;;3.42;78.02;99459.88;5493128;26;20016;-66
2024/04/19 05:03:36;;;;;;;0.70;0.70;;;;;;;3.45;78.06;99447.34;5493114;26;20002;-65
2024/04/19 05:06:06;;;;;;;0.38;0.38;;;;;;;3.51;78.18;99452.53;5493042;26;20006;-65
2024/04/19 05:08:37;;;;;;;1.23;1.13;;;;;;;3.61;78.37;99451.94;5493592;26;20006;-65
2024/04/19 05:11:08;;;;;;;1.80;1.02;;;;;;;3.70;78.25;99448.75;5493022;26;20014;-66
2024/04/19 05:13:38;;;;;;;1.55;1.27;;;;;;;3.78;78.30;99445.59;5492789;26;20348;-65
2024/04/19 05:16:10;;;;;;;0.50;0.50;;;;;;;3.92;78.25;99446.75;5493128;26;20492;-65
2024/04/19 05:18:44;;;;;;;1.20;0.98;;;;;;;3.89;78.12;99428.16;5500367;26;20077;-65
2024/04/19 05:21:14;;;;;;;1.73;1.38;;;;;;;4.05;77.77;99447.88;5529788;25;20009;-65
2024/04/19 05:23:46;;;;;;;1.10;0.98;;;;;;;4.22;77.75;99448.22;5529499;26;20009;-66
2024/04/19 05:26:16;;;;;;;3.83;1.75;;;;;;;4.28;77.32;99445.81;5529891;26;20065;-65
2024/04/19 05:28:47;;;;;;;1.40;1.17;;;;;;;4.45;77.07;99449.53;5529499;25;20001;-64
2024/04/19 05:31:17;;;;;;;0.40;0.40;;;;;;;4.42;76.33;99454.50;5528150;26;20034;-65
2024/04/19 05:33:52;;;;;;;0.65;0.65;;;;;;;4.26;76.18;99447.47;5526814;26;20009;-65
2024/04/19 05:36:23;;;;;;;0.20;0.20;;;;;;;4.20;76.02;99462.50;5527579;26;20017;-65
2024/04/19 05:38:54;;;;;;;0.38;0.38;;;;;;;4.26;76.28;99468.53;5529688;25;20332;-65
2024/04/19 05:41:24;;;;;;;0.63;0.63;;;;;;;4.35;76.07;99467.84;5529662;25;20025;-65
2024/04/19 05:43:55;;;;;;;0.20;0.20;;;;;;;4.27;75.93;99459.28;5529943;25;20005;-65
2024/04/19 05:46:26;;;;;;;0.30;0.30;;;;;;;4.30;76.18;99457.66;5529384;25;19997;-64
2024/04/19 05:48:59;;;;;;;0.63;0.63;;;;;;;4.50;76.14;99463.09;5527806;26;20005;-65
2024/04/19 05:51:30;;;;;;;0.63;0.63;;;;;;;4.39;76.19;99465.41;5529622;25;19998;-65
2024/04/19 05:54:01;;;;;;;0.90;0.90;;;;;;;4.43;76.39;99466.34;5529141;25;20008;-68
2024/04/19 05:56:31;;;;;;;2.53;2.00;;;;;;;4.48;76.83;99464.75;5529114;25;20016;-65
2024/04/19 05:59:02;;;;;;;0.60;0.60;;;;;;;4.53;77.05;99463.19;5529720;25;19998;-65
2024/04/19 06:01:33;;;;;;;1.75;1.63;;;;;;;4.72;77.49;99460.19;5529054;26;20363;-65
2024/04/19 06:04:07;;;;;;;7.57;1.15;;;;;;;4.70;76.81;99454.25;5529036;26;20002;-65
2024/04/19 06:06:38;;;;;;;0.65;0.65;;;;;;;4.83;76.83;99458.69;5528811;26;20128;-65
2024/04/19 06:09:09;;;;;;;1.30;1.00;;;;;;;5.03;76.86;99456.53;5528885;25;19998;-64
2024/04/19 06:11:39;;;;;;;5.05;1.70;;;;;;;5.21;76.99;99460.22;5527187;26;20476;-64
2024/04/19 06:14:10;;;;;;;1.25;1.15;;;;;;;5.38;76.39;99466.41;5528626;26;20012;-65
2024/04/19 06:16:41;;;;;;;1.48;1.38;;;;;;;5.48;76.01;99466.53;5528792;25;20001;-65
2024/04/19 06:19:14;;;;;;;1.58;1.48;;;;;;;5.47;75.00;99454.75;5528758;26;20069;-65
2024/04/19 06:21:45;;;;;;;0.52;0.52;;;;;;;5.31;74.66;99434.25;5528981;26;20001;-65
2024/04/19 06:24:17;;;;;;;0.50;0.50;;;;;;;5.62;75.56;99465.06;5528394;26;20080;-66
2024/04/19 06:26:47;;;;;;;0.85;0.85;;;;;;;5.83;75.62;99457.84;5528830;25;20008;-66
2024/04/19 06:29:18;;;;;;;0.50;0.50;;;;;;;5.86;75.17;99456.22;5528848;26;20009;-66
2024/04/19 06:31:48;;;;;;;1.17;1.15;;;;;;;5.93;74.94;99459.66;5528820;26;20024;-66
2024/04/19 06:34:22;;;;;;;3.85;2.25;;;;;;;5.99;74.95;99462.31;5528694;26;20351;-66
2024/04/19 06:36:52;;;;;;;0.57;0.57;;;;;;;6.05;75.34;99463.22;5528538;25;19998;-66
2024/04/19 06:39:26;;;;;;;1.58;1.25;;;;;;;6.02;73.89;99453.06;5528083;25;20363;-66
2024/04/19 06:41:57;;;;;;;1.48;0.95;;;;;;;6.30;73.68;99448.34;5528596;25;20535;-65
2024/04/19 06:44:27;;;;;;;0.55;0.55;;;;;;;6.49;73.47;99441.00;5526475;26;20006;-67
2024/04/19 06:46:58;;;;;;;5.05;1.00;;;;;;;6.67;72.30;99437.81;5526851;25;19998;-65
2024/04/19 06:49:31;;;;;;;0.35;0.35;;;;;;;6.64;69.58;99418.34;5528252;26;20013;-66
2024/04/19 06:52:02;;;;;;;0.43;0.43;;;;;;;6.83;69.88;99431.22;5528368;26;20008;-65
2024/04/19 06:54:32;;;;;;;3.30;1.75;;;;;;;7.06;70.01;99427.19;5526680;26;20016;-65
2024/04/19 06:57:03;;;;;;;1.33;1.23;;;;;;;7.22;69.27;99426.50;5495800;26;20309;-66
2024/04/19 06:59:33;;;;;;;2.10;1.00;;;;;;;7.25;68.57;99421.44;5528580;26;20066;-65
2024/04/19 07:02:04;;;;;;;0.70;0.70;;;;;;;7.50;68.33;99425.88;5527851;26;20030;-66
2024/04/19 07:04:38;;;;;;;0.73;0.73;;;;;;;7.52;67.56;99423.34;5528158;25;20012;-66
2024/04/19 07:07:08;;;;;;;1.00;0.93;;;;;;;7.54;68.12;99419.97;5528642;25;20073;-68
2024/04/19 07:09:40;;;;;;;1.88;1.27;;;;;;;7.61;67.34;99421.72;5528335;25;20009;-66
2024/04/19 07:12:11;;;;;;;1.73;1.63;;;;;;;7.68;67.29;99425.16;5528000;25;20024;-65
2024/04/19 07:14:41;;;;;;;1.15;1.05;;;;;;;7.88;66.86;99426.97;5526008;26;20001;-66
2024/04/19 07:17:13;;;;;;;1.58;1.48;;;;;;;7.98;67.20;99421.13;5527279;26;20323;-65
2024/04/19 07:19:49;;;;;;;2.42;2.15;;;;;;;7.89;66.20;99413.41;5506604;26;20010;-65
2024/04/19 07:22:20;;;;;;;1.33;1.20;;;;;;;8.06;66.54;99416.91;5506228;26;20515;-66
2024/04/19 07:24:52;;;;;;;1.65;1.55;;;;;;;8.13;66.32;99416.94;5507759;26;20070;-64
2024/04/19 07:27:23;;;;;;;1.58;1.48;;;;;;;8.19;66.39;99416.97;5506804;25;20470;-66
2024/04/19 07:30:05;;;;;;;2.95;1.95;;;;;;;8.36;66.44;99410.28;5495169;26;20432;-66
2024/04/19 07:32:36;;;;;;;1.35;1.25;;;;;;;8.32;65.72;99403.50;5505369;26;20038;-65
2024/04/19 07:35:10;;;;;;;1.33;1.23;;;;;;;8.28;66.18;99396.72;5491229;26;20005;-66
2024/04/19 07:37:40;;;;;;;4.88;1.85;;;;;;;8.35;65.93;99398.44;5490944;26;20016;-65
2024/04/19 07:40:12;;;;;;;0.52;0.52;;;;;;;8.33;65.59;99389.94;5490826;26;20047;-66
2024/04/19 07:42:42;;;;;;;1.10;1.05;;;;;;;8.45;65.72;99389.97;5458872;26;19998;-65
2024/04/19 07:45:18;;;;;;;0.77;0.77;;;;;;;8.70;65.93;99394.28;5490802;26;20452;-66
2024/04/19 07:47:49;;;;;;;1.95;1.15;;;;;;;8.90;65.65;99387.50;5489736;26;20014;-64
2024/04/19 07:50:22;;;;;;;0.50;0.50;;;;;;;9.00;66.08;99384.13;5490548;26;20401;-64
2024/04/19 07:52:53;;;;;;;0.60;0.60;;;;;;;9.19;65.11;99396.03;5490736;26;19998;-66
2024/04/19 07:55:24;;;;;;;1.63;1.52;;;;;;;9.17;65.05;99385.00;5490771;26;20459;-65
2024/04/19 07:57:54;;;;;;;1.15;1.05;;;;;;;9.25;65.56;99392.63;5489728;26;19998;-66
2024/04/19 08:00:25;;;;;;;0.90;0.90;;;;;;;9.33;65.30;99386.69;5490641;26;20070;-65
2024/04/19 08:02:56;;;;;;;0.70;0.70;;;;;;;9.39;65.69;99386.69;5490482;26;20017;-65
2024/04/19 08:05:29;;;;;;;1.30;1.15;;;;;;;9.49;65.11;99374.78;5490487;26;20002;-65
2024/04/19 08:08:01;;;;;;;1.08;0.98;;;;;;;9.69;64.95;99379.88;5490342;26;20405;-63
2024/04/19 08:10:32;;;;;;;0.35;0.35;;;;;;;9.55;64.58;99376.50;5490608;26;20006;-66
2024/04/19 08:13:04;;;;;;;0.57;0.57;;;;;;;9.65;64.48;99378.16;5490240;26;20018;-66
2024/04/19 08:15:35;;;;;;;0.40;0.40;;;;;;;9.78;64.09;99369.63;5490368;26;20002;-65
2024/04/19 08:18:07;;;;;;;3.08;1.60;;;;;;;9.74;63.06;99373.06;5489994;26;20444;-65
2024/04/19 08:20:40;;;;;;;1.17;1.08;;;;;;;9.76;62.82;99363.72;5490109;26;20055;-65
2024/04/19 08:23:11;;;;;;;0.88;0.88;;;;;;;9.79;63.25;99356.06;5490171;26;20018;-64
2024/04/19 08:25:43;;;;;;;0.70;0.70;;;;;;;9.87;63.71;99347.53;5489968;26;19999;-66
2024/04/19 08:28:14;;;;;;;0.52;0.52;;;;;;;10.25;63.69;99351.63;5486682;26;20013;-66
2024/04/19 08:30:45;;;;;;;1.48;1.00;;;;;;;10.49;62.87;99352.38;5490014;26;20052;-65
2024/04/19 08:33:15;;;;;;;0.88;0.80;;;;;;;10.49;62.08;99316.66;5488050;26;20079;-65
2024/04/19 08:35:55;;;;;;;0.50;0.50;;;;;;;10.78;61.24;99337.72;5490020;26;20009;-66
2024/04/19 08:38:26;;;;;;;;;;;;;;;11.00;61.49;99340.09;5490084;26;20010;-66
2024/04/19 08:41:00;;;;;;;0.80;0.80;;;;;;;11.02;59.79;99339.25;5488004;26;19924;-67
2024/04/19 08:43:35;;;;;;;0.40;0.40;;;;;;;10.90;59.62;99333.38;5489598;26;20085;-67
2024/04/19 08:46:07;;;;;;;0.38;0.38;;;;;;;10.92;60.34;99326.56;5487637;26;20002;-66
2024/04/19 08:48:39;;;;;;;1.38;1.27;;;;;;;10.80;58.17;99316.44;5489767;26;20007;-65
2024/04/19 08:51:15;;;;;;;0.43;0.43;;;;;;;10.84;58.82;99307.91;5489418;26;20010;-65
2024/04/19 08:54:01;;;;;;;0.47;0.47;;;;;;;11.13;57.51;99316.16;5488450;26;20017;-64
2024/04/19 08:56:32;;;;;;;0.50;0.50;;;;;;;11.30;55.21;99309.22;5488793;26;20344;-65
2024/04/19 08:59:03;;;;;;;0.60;0.60;;;;;;;11.62;55.57;99307.16;5488615;26;20125;-66
2024/04/19 09:01:34;;;;;;;0.68;0.68;;;;;;;11.97;53.16;99304.22;5489602;26;19999;-66
2024/04/19 09:04:05;;;;;;;0.50;0.50;;;;;;;12.06;52.64;99302.41;5486964;26;20009;-66
2024/04/19 09:06:39;;;;;;;0.40;0.40;;;;;;;12.38;52.62;99299.38;5488807;26;20452;-65
2024/04/19 09:09:09;;;;;;;0.80;0.80;;;;;;;12.56;51.28;99301.69;5489151;26;19998;-64
2024/04/19 09:11:44;;;;;;;0.70;0.70;;;;;;;12.59;51.87;99303.38;5492646;26;20006;-67
2024/04/19 09:14:15;;;;;;;0.60;0.60;;;;;;;12.50;51.47;99300.94;5492321;26;20351;-65
2024/04/19 09:16:45;;;;;;;0.40;0.40;;;;;;;12.43;50.21;99304.47;5492567;26;20068;-65
2024/04/19 09:19:16;;;;;;;0.50;0.50;;;;;;;12.31;48.75;99297.78;5492825;26;20006;-65
2024/04/19 09:21:50;;;;;;;0.70;0.70;;;;;;;12.45;48.42;99293.31;5492776;26;20016;-65
2024/04/19 09:24:21;;;;;;;1.05;0.77;;;;;;;12.54;47.51;99288.06;5493184;26;20002;-65
2024/04/19 09:26:51;;;;;;;0.50;0.50;;;;;;;12.49;46.96;99278.75;5492092;26;20038;-66
2024/04/19 09:29:29;;;;;;;0.65;0.65;;;;;;;12.71;46.52;99283.53;5492668;26;19998;-66
2024/04/19 09:32:02;;;;;;;0.40;0.40;;;;;;;12.89;47.07;99282.38;5492791;26;20006;-66
2024/04/19 09:34:32;;;;;;;0.73;0.60;;;;;;;13.09;47.60;99272.69;5492405;26;20449;-66
2024/04/19 09:37:07;;;;;;;0.68;0.63;;;;;;;13.19;47.05;99274.22;5492223;26;20360;-65
2024/04/19 09:39:40;;;;;;;0.40;0.40;;;;;;;13.19;45.84;99269.09;5492447;26;20070;-66
2024/04/19 09:42:11;;;;;;;0.68;0.60;;;;;;;13.17;45.91;99265.69;5492223;26;20006;-65
2024/04/19 09:44:42;;;;;;;0.47;0.47;;;;;;;13.30;46.14;99267.19;5492281;26;20027;-67
2024/04/19 09:47:14;;;;;;;0.40;0.40;;;;;;;13.50;43.04;99268.53;5492264;26;19998;-65
2024/04/19 09:49:44;;;;;;;1.20;0.50;;;;;;;13.40;43.39;99253.31;5492283;26;20393;-67
2024/04/19 09:52:22;;;;;;;0.95;0.95;;;;;;;13.55;44.14;99241.94;5492123;26;20005;-66
2024/04/19 09:55:04;;;;;;;0.88;0.88;;;;;;;13.67;45.18;99244.25;5492097;26;20456;-65
2024/04/19 09:57:38;;;;;;;0.65;0.57;;;;;;;13.81;44.28;99238.81;5492380;26;20010;-66
2024/04/19 10:00:11;;;;;;;0.73;0.70;;;;;;;13.72;43.98;99244.16;5492300;26;20024;-64
2024/04/19 10:02:42;;;;;;;0.45;0.45;;;;;;;13.53;44.14;99238.56;5492198;26;20002;-64
2024/04/19 10:05:13;;;;;;;0.63;0.60;;;;;;;13.31;43.60;99240.69;5492021;26;20034;-65
2024/04/19 10:07:48;;;;;;;0.85;0.60;;;;;;;12.94;43.71;99175.56;5491851;26;20078;-66
2024/04/19 10:10:19;;;;;;;0.32;0.32;;;;;;;13.20;43.28;99224.66;5492336;26;20009;-66
2024/04/19 10:12:50;;;;;;;0.65;0.65;;;;;;;13.18;44.19;99235.78;5491801;26;20010;-66
2024/04/19 10:15:23;;;;;;;0.70;0.70;;;;;;;13.00;44.15;99231.84;5491727;26;20002;-65
2024/04/19 10:17:53;;;;;;;0.32;0.32;;;;;;;12.93;44.71;99198.66;5491673;26;20038;-65
2024/04/19 10:20:25;;;;;;;1.55;0.75;;;;;;;13.08;43.86;99213.78;5489815;26;20041;-66
2024/04/19 10:23:01;;;;;;;0.40;0.40;;;;;;;13.02;44.93;99209.59;5491984;26;20009;-66
2024/04/19 10:25:38;;;;;;;0.63;0.63;;;;;;;13.05;44.43;99199.25;5491747;26;20057;-66
2024/04/19 10:28:11;;;;;;;0.50;0.50;;;;;;;13.13;43.75;99197.44;5491831;26;19998;-67
2024/04/19 10:30:44;;;;;;;0.50;0.50;;;;;;;13.03;44.22;99189.94;5491827;26;19998;-65
2024/04/19 10:33:15;;;;;;;0.63;0.63;;;;;;;13.13;43.85;99194.88;5491483;26;20002;-65
2024/04/19 10:35:47;;;;;;;0.65;0.65;;;;;;;13.34;43.98;99189.34;5491911;26;20030;-65
2024/04/19 10:38:21;;;;;;;0.40;0.40;;;;;;;13.49;43.13;99184.78;5491948;26;20073;-65
2024/04/19 10:40:52;;;;;;;0.63;0.63;;;;;;;13.56;43.73;99186.34;5491555;26;20018;-65
2024/04/19 10:43:23;;;;;;;0.45;0.45;;;;;;;13.35;43.24;99177.38;5491790;26;20051;-66
2024/04/19 10:45:54;;;;;;;0.73;0.70;;;;;;;13.45;43.76;99178.88;5491793;26;19998;-65
2024/04/19 10:48:25;;;;;;;0.60;0.60;;;;;;;13.73;44.50;99164.59;5489472;26;20345;-65
2024/04/19 10:50:58;;;;;;;0.35;0.35;;;;;;;13.72;44.33;99151.81;5491556;26;20022;-66
2024/04/19 10:53:31;;;;;;;7.88;1.60;;;;;;;13.78;44.07;99156.81;5491342;26;20017;-65
2024/04/19 10:56:02;;;;;;;0.77;0.70;;;;;;;14.02;44.74;99156.25;5491567;26;20009;-65
2024/04/19 10:58:32;;;;;;;0.70;0.70;;;;;;;14.15;44.57;99156.81;5489434;26;19998;-65
2024/04/19 11:01:03;;;;;;;0.47;0.47;;;;;;;13.75;44.53;99156.91;5491339;26;20067;-67
2024/04/19 11:03:35;;;;;;;0.65;0.65;;;;;;;13.46;46.66;99152.34;5491470;26;20451;-66
2024/04/19 11:06:06;;;;;;;0.70;0.70;;;;;;;13.16;49.22;99161.53;5491616;26;19998;-67
2024/04/19 11:08:40;;;;;;;0.65;0.65;;;;;;;12.83;50.66;99141.66;5491184;26;20002;-66
2024/04/19 11:11:12;;;;;;;0.40;0.40;;;;;;;12.65;51.07;99147.09;5491254;26;19999;-66
2024/04/19 11:13:43;;;;;;;0.70;0.70;;;;;;;12.49;51.88;99150.78;5491468;26;20003;-67
2024/04/19 11:16:13;;;;;;;0.50;0.50;;;;;;;12.34;52.68;99143.34;5491271;26;20006;-66
2024/04/19 11:18:44;;;;;;;0.57;0.57;;;;;;;12.27;52.30;99139.22;5491026;26;20038;-65
2024/04/19 11:21:15;;;;;;;0.40;0.40;;;;;;;12.04;52.44;99142.97;5491006;26;20006;-69
2024/04/19 11:23:48;;;;;;;0.52;0.52;;;;;;;12.06;52.25;99133.59;5491193;26;19999;-64
2024/04/19 11:26:22;;;;;;;0.63;0.63;;;;;;;12.23;51.78;99137.56;5491333;26;20014;-65
2024/04/19 11:28:53;;;;;;;0.40;0.40;;;;;;;12.43;51.98;99135.53;5491123;26;19998;-66
2024/04/19 11:31:26;;;;;;;0.52;0.52;;;;;;;12.58;51.31;99119.91;5490675;26;20353;-65
2024/04/19 11:33:57;;;;;;;0.60;0.60;;;;;;;12.84;50.51;99120.25;5488403;26;20006;-65
2024/04/19 11:36:28;;;;;;;0.40;0.40;;;;;;;12.93;47.88;99121.81;5491169;26;20433;-65
2024/04/19 11:39:03;;;;;;;0.50;0.50;;;;;;;13.14;47.63;99112.03;5490971;26;19997;-65
2024/04/19 11:41:33;;;;;;;0.93;0.93;;;;;;;13.24;46.63;99108.41;5490734;26;20014;-65
2024/04/19 11:44:05;;;;;;;0.40;0.40;;;;;;;13.31;46.55;99104.00;5490674;25;20032;-65
2024/04/19 11:46:35;;;;;;;0.60;0.60;;;;;;;13.28;46.26;99107.47;5490823;26;20003;-65
2024/04/19 11:49:09;;;;;;;1.45;1.35;;;;;;;13.33;47.16;99108.22;5490973;26;20009;-66
2024/04/19 11:51:39;;;;;;;0.60;0.60;;;;;;;13.19;46.31;99110.22;5489127;26;20006;-65
2024/04/19 11:54:12;;;;;;;1.23;1.13;;;;;;;13.07;46.91;99104.50;5488516;26;20009;-66
2024/04/19 11:56:43;;;;;;;0.43;0.43;;;;;;;12.84;47.23;99086.97;5490733;26;20010;-65
2024/04/19 11:59:19;;;;;;;0.57;0.57;;;;;;;12.82;47.13;99098.97;5488063;26;19994;-65
2024/04/19 12:01:50;;;;;;;0.60;0.60;;;;;;;12.60;47.14;99107.91;5490426;26;20341;-65
2024/04/19 12:04:21;;;;;;;0.85;0.80;;;;;;;12.50;48.04;99137.13;5490501;26;20325;-65